Time;durP1;ratioP1;P1;durP2;ratioP2;P2;SDS_P1;SDS_P2;PMS_P1;PMS_P2;Temp;Humidity;BMP_temperature;BMP_pressure;BME280_temperature;BME280_humidity;BME280_pressure;Samples;Min_cycle;Max_cycle;Signal;HPM_P1;HPM_P2
2023/08/06 00:02:02;;;;;;;2.60;1.10;;;;;;;;;;5012421;28;20561;-91
2023/08/06 00:04:30;;;;;;;1.67;0.90;;;;;;;;;;5014858;28;20479;-87
2023/08/06 00:06:57;;;;;;;1.80;0.80;;;;;;;;;;4994174;28;20531;-87
2023/08/06 00:09:24;;;;;;;2.20;0.97;;;;;;;;;;5003987;28;20435;-86
2023/08/06 00:11:51;;;;;;;3.13;1.10;;;;;;;;;;5014021;28;21030;-86
2023/08/06 00:14:18;;;;;;;2.00;1.10;;;;;;;;;;5013903;28;20470;-86
2023/08/06 00:16:46;;;;;;;1.90;1.10;;;;;;;;;;5013829;28;20458;-87
2023/08/06 00:19:15;;;;;;;3.73;1.60;;;;;;;;;;5014190;28;20447;-87
2023/08/06 00:21:42;;;;;;;2.53;0.87;;;;;;;;;;5013804;28;20471;-87
2023/08/06 00:24:10;;;;;;;2.73;1.10;;;;;;;;;;5013766;28;20502;-87
2023/08/06 00:26:37;;;;;;;2.70;1.67;;;;;;;;;;5013600;28;20475;-86
2023/08/06 00:29:04;;;;;;;2.80;1.33;;;;;;;;;;5013877;28;20451;-86
2023/08/06 00:31:31;;;;;;;3.40;1.40;;;;;;;;;;5013520;28;20470;-86
2023/08/06 00:33:59;;;;;;;2.73;1.63;;;;;;;;;;5013935;28;20498;-87
2023/08/06 00:36:27;;;;;;;5.50;1.30;;;;;;;;;;5013626;28;20431;-87
2023/08/06 00:38:55;;;;;;;2.73;1.63;;;;;;;;;;5013997;28;20509;-87
2023/08/06 00:41:22;;;;;;;1.77;0.97;;;;;;;;;;5013626;28;20464;-87
2023/08/06 00:43:50;;;;;;;2.53;1.10;;;;;;;;;;5007780;28;20475;-87
2023/08/06 00:46:17;;;;;;;2.00;1.03;;;;;;;;;;4994162;28;20526;-87
2023/08/06 00:48:44;;;;;;;1.90;0.90;;;;;;;;;;4993405;28;20471;-86
2023/08/06 00:51:12;;;;;;;5.27;1.50;;;;;;;;;;4993787;28;20476;-87
2023/08/06 00:53:41;;;;;;;1.93;1.10;;;;;;;;;;4994182;28;20543;-87
2023/08/06 00:56:08;;;;;;;2.40;1.40;;;;;;;;;;5001847;28;20452;-87
2023/08/06 00:58:36;;;;;;;3.43;1.27;;;;;;;;;;5013611;28;20538;-87
2023/08/06 01:01:03;;;;;;;1.83;1.20;;;;;;;;;;5013040;28;20446;-87
2023/08/06 01:03:31;;;;;;;2.13;1.10;;;;;;;;;;5026409;23;20925;-57
2023/08/06 01:05:58;;;;;;;2.90;1.20;;;;;;;;;;5010053;28;20550;-57
2023/08/06 01:08:31;;;;;;;5.20;1.30;;;;;;;;;;5009968;28;20960;-57
2023/08/06 01:11:06;;;;;;;2.17;1.23;;;;;;;;;;5009960;28;20443;-57
2023/08/06 01:13:39;;;;;;;2.77;1.30;;;;;;;;;;5010370;28;20443;-57
2023/08/06 01:16:08;;;;;;;4.73;1.13;;;;;;;;;;5009923;28;20499;-57
2023/08/06 01:18:37;;;;;;;4.27;1.57;;;;;;;;;;5008959;28;20448;-56
2023/08/06 01:21:05;;;;;;;2.93;1.27;;;;;;;;;;5010308;28;20443;-56
2023/08/06 01:23:33;;;;;;;2.50;1.50;;;;;;;;;;4997380;28;20539;-57
2023/08/06 01:26:04;;;;;;;3.83;1.70;;;;;;;;;;5007448;28;20509;-56
2023/08/06 01:28:35;;;;;;;3.60;2.17;;;;;;;;;;4997202;28;20448;-57
2023/08/06 01:31:03;;;;;;;3.47;1.43;;;;;;;;;;4990418;28;20527;-57
2023/08/06 01:33:33;;;;;;;4.53;1.60;;;;;;;;;;4991137;28;20530;-56
2023/08/06 01:36:01;;;;;;;3.13;1.67;;;;;;;;;;4990682;28;20509;-57
2023/08/06 01:38:29;;;;;;;3.23;1.60;;;;;;;;;;4991156;28;20444;-57
2023/08/06 01:40:57;;;;;;;2.80;1.90;;;;;;;;;;5001451;28;20883;-57
2023/08/06 01:43:24;;;;;;;3.10;2.33;;;;;;;;;;4990860;28;20467;-57
2023/08/06 01:45:51;;;;;;;2.93;1.70;;;;;;;;;;4992143;28;20563;-57
2023/08/06 01:48:18;;;;;;;4.27;1.60;;;;;;;;;;4990912;28;20999;-57
2023/08/06 01:50:45;;;;;;;2.50;1.70;;;;;;;;;;4990350;28;21061;-56
2023/08/06 01:53:13;;;;;;;3.20;1.50;;;;;;;;;;4990206;28;20484;-57
2023/08/06 01:55:41;;;;;;;2.57;1.97;;;;;;;;;;4991330;28;20499;-57
2023/08/06 01:58:09;;;;;;;2.57;1.30;;;;;;;;;;4991102;28;20526;-57
2023/08/06 02:00:36;;;;;;;2.10;1.50;;;;;;;;;;5008353;28;20890;-56
2023/08/06 02:03:03;;;;;;;2.30;1.67;;;;;;;;;;5009458;28;20455;-57
2023/08/06 02:05:30;;;;;;;3.23;1.90;;;;;;;;;;4998229;28;20507;-57
2023/08/06 02:07:57;;;;;;;2.93;1.77;;;;;;;;;;4990390;28;20452;-57
2023/08/06 02:10:25;;;;;;;2.70;1.77;;;;;;;;;;5004499;28;20509;-56
2023/08/06 02:12:53;;;;;;;2.87;1.97;;;;;;;;;;5003453;28;20586;-57
2023/08/06 02:15:21;;;;;;;2.40;1.60;;;;;;;;;;5008505;28;20435;-57
2023/08/06 02:17:48;;;;;;;2.50;1.80;;;;;;;;;;5082304;23;20517;-54
2023/08/06 02:20:15;;;;;;;2.30;1.37;;;;;;;;;;5008057;28;20443;-54
2023/08/06 02:22:42;;;;;;;2.80;1.60;;;;;;;;;;5008687;28;20525;-55
2023/08/06 02:25:10;;;;;;;2.93;1.60;;;;;;;;;;5013187;28;20510;-54
2023/08/06 02:27:38;;;;;;;3.13;1.67;;;;;;;;;;5013292;28;20546;-55
2023/08/06 02:30:08;;;;;;;3.50;2.00;;;;;;;;;;5013358;28;20631;-55
2023/08/06 02:32:35;;;;;;;3.30;2.10;;;;;;;;;;5013461;28;20443;-53
2023/08/06 02:35:03;;;;;;;2.50;1.80;;;;;;;;;;5013228;28;20527;-53
2023/08/06 02:37:30;;;;;;;3.10;1.70;;;;;;;;;;5013130;28;20495;-55
2023/08/06 02:39:57;;;;;;;2.80;1.30;;;;;;;;;;5013341;28;20478;-53
2023/08/06 02:42:26;;;;;;;2.77;1.80;;;;;;;;;;5013127;28;20471;-55
2023/08/06 02:44:54;;;;;;;3.67;1.77;;;;;;;;;;5013236;28;20471;-53
2023/08/06 02:47:23;;;;;;;4.23;2.37;;;;;;;;;;5013594;28;20972;-55
2023/08/06 02:49:50;;;;;;;1.90;1.23;;;;;;;;;;5012721;28;20910;-55
2023/08/06 02:52:18;;;;;;;4.13;2.03;;;;;;;;;;5012491;28;20530;-54
2023/08/06 02:54:45;;;;;;;2.30;1.50;;;;;;;;;;5012875;28;20522;-52
2023/08/06 02:57:12;;;;;;;2.50;1.60;;;;;;;;;;5013308;28;20900;-54
2023/08/06 02:59:39;;;;;;;2.43;1.87;;;;;;;;;;5011850;28;20523;-55
2023/08/06 03:02:07;;;;;;;2.90;1.57;;;;;;;;;;5013033;28;20498;-54
2023/08/06 03:04:35;;;;;;;2.47;1.87;;;;;;;;;;5012810;28;20474;-54
2023/08/06 03:07:03;;;;;;;2.03;1.60;;;;;;;;;;5013107;28;20513;-55
2023/08/06 03:09:30;;;;;;;2.50;1.87;;;;;;;;;;5012416;28;20551;-54
2023/08/06 03:11:57;;;;;;;2.77;2.00;;;;;;;;;;5011374;28;20832;-54
2023/08/06 03:14:24;;;;;;;3.10;1.80;;;;;;;;;;5012341;28;20439;-53
2023/08/06 03:16:52;;;;;;;3.23;1.80;;;;;;;;;;5012723;28;20482;-54
2023/08/06 03:19:19;;;;;;;2.40;1.80;;;;;;;;;;5012399;28;21002;-54
2023/08/06 03:21:47;;;;;;;3.00;1.73;;;;;;;;;;5011567;28;20522;-55
2023/08/06 03:24:15;;;;;;;2.33;1.63;;;;;;;;;;5012908;28;20443;-54
2023/08/06 03:26:42;;;;;;;2.50;1.73;;;;;;;;;;5011369;28;21050;-55
2023/08/06 03:29:09;;;;;;;3.70;1.63;;;;;;;;;;5011824;28;20443;-55
2023/08/06 03:31:36;;;;;;;2.27;1.43;;;;;;;;;;5012155;28;20522;-55
2023/08/06 03:34:04;;;;;;;2.30;1.53;;;;;;;;;;5012346;28;20529;-54
2023/08/06 03:36:31;;;;;;;2.07;1.43;;;;;;;;;;5010396;28;20546;-54
2023/08/06 03:39:00;;;;;;;2.93;1.60;;;;;;;;;;5011226;28;20447;-54
2023/08/06 03:41:27;;;;;;;2.30;1.60;;;;;;;;;;5011238;28;20525;-54
2023/08/06 03:43:54;;;;;;;3.30;1.43;;;;;;;;;;5011594;28;20543;-53
2023/08/06 03:46:21;;;;;;;2.40;1.40;;;;;;;;;;5012336;28;20562;-54
2023/08/06 03:48:48;;;;;;;2.50;1.50;;;;;;;;;;5011539;28;20927;-54
2023/08/06 03:51:16;;;;;;;2.57;1.20;;;;;;;;;;5011688;28;20435;-55
2023/08/06 03:53:43;;;;;;;4.17;1.80;;;;;;;;;;5012202;28;20467;-53
2023/08/06 03:56:11;;;;;;;2.13;1.30;;;;;;;;;;5011837;28;20987;-53
2023/08/06 03:58:39;;;;;;;3.20;1.70;;;;;;;;;;5010953;28;20522;-54
2023/08/06 04:01:06;;;;;;;2.77;1.80;;;;;;;;;;5010558;28;20850;-55
2023/08/06 04:03:33;;;;;;;2.73;1.60;;;;;;;;;;5011888;28;20502;-53
2023/08/06 04:06:00;;;;;;;2.37;1.50;;;;;;;;;;5012041;28;20479;-54
2023/08/06 04:08:28;;;;;;;2.00;1.27;;;;;;;;;;5011907;28;20450;-53
2023/08/06 04:10:55;;;;;;;3.50;1.23;;;;;;;;;;5010866;28;20448;-53
2023/08/06 04:13:24;;;;;;;2.10;1.27;;;;;;;;;;5011795;28;20474;-54
2023/08/06 04:15:51;;;;;;;2.43;1.23;;;;;;;;;;5011317;28;20518;-53
2023/08/06 04:18:18;;;;;;;3.17;1.37;;;;;;;;;;5011176;28;20435;-53
2023/08/06 04:20:45;;;;;;;3.10;1.13;;;;;;;;;;5011600;28;20885;-55
2023/08/06 04:23:13;;;;;;;2.80;1.30;;;;;;;;;;5011531;28;20533;-55
2023/08/06 04:25:40;;;;;;;1.97;1.20;;;;;;;;;;5011586;28;20507;-55
2023/08/06 04:28:08;;;;;;;2.40;1.60;;;;;;;;;;5011163;28;20522;-55
2023/08/06 04:30:38;;;;;;;2.33;1.40;;;;;;;;;;5010898;28;20479;-55
2023/08/06 04:33:05;;;;;;;2.50;1.30;;;;;;;;;;5011441;28;20439;-54
2023/08/06 04:35:33;;;;;;;1.80;1.00;;;;;;;;;;5011567;28;20542;-53
2023/08/06 04:38:00;;;;;;;2.10;1.20;;;;;;;;;;5011285;28;20487;-53
2023/08/06 04:40:27;;;;;;;2.20;1.13;;;;;;;;;;5011487;28;20439;-54
2023/08/06 04:42:55;;;;;;;2.13;1.37;;;;;;;;;;5011414;28;20497;-54
2023/08/06 04:45:24;;;;;;;2.67;1.20;;;;;;;;;;5011112;28;20567;-53
2023/08/06 04:47:52;;;;;;;1.97;1.13;;;;;;;;;;5010619;28;20844;-55
2023/08/06 04:50:20;;;;;;;2.20;1.10;;;;;;;;;;5010823;28;20843;-53
2023/08/06 04:52:47;;;;;;;1.80;0.90;;;;;;;;;;5011081;28;20527;-55
2023/08/06 04:55:14;;;;;;;2.30;1.30;;;;;;;;;;5011235;28;20529;-55
2023/08/06 04:57:41;;;;;;;1.80;1.13;;;;;;;;;;5010925;28;20517;-54
2023/08/06 05:00:09;;;;;;;2.23;1.10;;;;;;;;;;5010628;28;20526;-54
2023/08/06 05:02:38;;;;;;;1.90;1.10;;;;;;;;;;5010844;28;21039;-53
2023/08/06 05:05:07;;;;;;;2.43;1.50;;;;;;;;;;5011013;28;20481;-54
2023/08/06 05:07:34;;;;;;;3.40;1.70;;;;;;;;;;5010969;28;20546;-53
2023/08/06 05:10:03;;;;;;;2.30;1.33;;;;;;;;;;5010312;28;20960;-54
2023/08/06 05:12:30;;;;;;;2.67;1.20;;;;;;;;;;5010688;28;20807;-54
2023/08/06 05:14:57;;;;;;;2.70;1.00;;;;;;;;;;5010872;28;20470;-55
2023/08/06 05:17:24;;;;;;;2.43;1.30;;;;;;;;;;5009925;28;20503;-54
2023/08/06 05:19:51;;;;;;;2.30;1.40;;;;;;;;;;5010651;28;20872;-55
2023/08/06 05:22:20;;;;;;;2.90;1.43;;;;;;;;;;5010467;28;20475;-55
2023/08/06 05:24:47;;;;;;;2.10;1.37;;;;;;;;;;5010933;28;20967;-55
2023/08/06 05:27:15;;;;;;;2.00;1.20;;;;;;;;;;5010339;28;20499;-54
2023/08/06 05:29:42;;;;;;;2.60;1.80;;;;;;;;;;5010899;28;20447;-54
2023/08/06 05:32:10;;;;;;;2.23;1.50;;;;;;;;;;5010535;28;20443;-53
2023/08/06 05:34:37;;;;;;;2.70;1.93;;;;;;;;;;5010667;28;20947;-55
2023/08/06 05:37:04;;;;;;;3.70;2.60;;;;;;;;;;5010312;28;20494;-55
2023/08/06 05:39:33;;;;;;;2.20;1.60;;;;;;;;;;5010297;28;20494;-53
2023/08/06 05:42:00;;;;;;;3.37;1.70;;;;;;;;;;5010456;28;20529;-56
2023/08/06 05:44:27;;;;;;;2.60;1.80;;;;;;;;;;5010440;28;20443;-54
2023/08/06 05:46:55;;;;;;;2.70;1.80;;;;;;;;;;5010995;28;20561;-54
2023/08/06 05:49:22;;;;;;;3.53;2.20;;;;;;;;;;5010217;28;20893;-53
2023/08/06 05:51:49;;;;;;;3.47;2.27;;;;;;;;;;5010424;28;20537;-54
2023/08/06 05:54:16;;;;;;;3.13;2.80;;;;;;;;;;5010718;28;20522;-53
2023/08/06 05:56:45;;;;;;;2.73;1.83;;;;;;;;;;5010562;28;21030;-53
2023/08/06 05:59:12;;;;;;;2.27;1.63;;;;;;;;;;5012265;28;20970;-53
2023/08/06 06:01:39;;;;;;;2.60;1.47;;;;;;;;;;5013838;28;20993;-54
2023/08/06 06:04:07;;;;;;;3.47;2.20;;;;;;;;;;5014202;28;20470;-53
2023/08/06 06:06:34;;;;;;;3.43;2.03;;;;;;;;;;5014235;28;20511;-53
2023/08/06 06:09:01;;;;;;;2.37;1.60;;;;;;;;;;5013369;28;20799;-54
2023/08/06 06:11:28;;;;;;;3.20;2.13;;;;;;;;;;5013920;28;20471;-55
2023/08/06 06:13:57;;;;;;;2.90;1.80;;;;;;;;;;5014209;28;20493;-55
2023/08/06 06:16:24;;;;;;;2.50;1.80;;;;;;;;;;5013164;28;20478;-54
2023/08/06 06:18:51;;;;;;;2.40;1.50;;;;;;;;;;5014019;28;20850;-54
2023/08/06 06:21:19;;;;;;;2.47;1.43;;;;;;;;;;5013580;28;20533;-55
2023/08/06 06:23:46;;;;;;;2.83;1.97;;;;;;;;;;5013687;28;20439;-53
2023/08/06 06:26:14;;;;;;;6.80;1.90;;;;;;;;;;5013609;28;20482;-54
2023/08/06 06:28:41;;;;;;;4.80;1.87;;;;;;;;;;5013554;28;20534;-53
2023/08/06 06:31:10;;;;;;;2.70;1.50;;;;;;;;;;5013618;28;20442;-55
2023/08/06 06:33:38;;;;;;;2.40;1.70;;;;;;;;;;5013606;28;20447;-53
2023/08/06 06:36:07;;;;;;;2.30;1.50;;;;;;;;;;5013470;28;20544;-54
2023/08/06 06:38:34;;;;;;;2.40;1.43;;;;;;;;;;5012147;28;20444;-54
2023/08/06 06:41:03;;;;;;;2.87;1.27;;;;;;;;;;5012864;28;20459;-54
2023/08/06 06:43:30;;;;;;;2.67;1.10;;;;;;;;;;5013084;28;20431;-53
2023/08/06 06:45:58;;;;;;;2.07;1.30;;;;;;;;;;5012709;28;20982;-54
2023/08/06 06:48:28;;;;;;;2.80;1.70;;;;;;;;;;5013022;28;20530;-53
2023/08/06 06:50:55;;;;;;;3.33;1.50;;;;;;;;;;5012827;28;20513;-55
2023/08/06 06:53:27;;;;;;;2.50;1.57;;;;;;;;;;5013174;28;20440;-53
2023/08/06 06:55:54;;;;;;;2.87;1.57;;;;;;;;;;5013224;28;20904;-53
2023/08/06 06:58:21;;;;;;;2.50;1.40;;;;;;;;;;5013100;28;20759;-54
2023/08/06 07:00:49;;;;;;;2.00;1.50;;;;;;;;;;5009978;28;20811;-54
2023/08/06 07:03:16;;;;;;;2.10;1.40;;;;;;;;;;5012697;28;20468;-54
2023/08/06 07:05:46;;;;;;;2.43;1.30;;;;;;;;;;5011238;28;20479;-53
2023/08/06 07:08:13;;;;;;;4.03;1.20;;;;;;;;;;5011196;28;20463;-53
2023/08/06 07:10:42;;;;;;;2.17;1.30;;;;;;;;;;5010016;28;20811;-54
2023/08/06 07:13:09;;;;;;;2.20;1.30;;;;;;;;;;5010835;28;20466;-55
2023/08/06 07:15:36;;;;;;;2.20;1.10;;;;;;;;;;5010361;28;21072;-54
2023/08/06 07:18:04;;;;;;;1.90;1.20;;;;;;;;;;5010767;28;20834;-54
2023/08/06 07:20:32;;;;;;;3.20;1.73;;;;;;;;;;5011731;28;20519;-55
2023/08/06 07:23:02;;;;;;;2.40;1.63;;;;;;;;;;5012535;28;20446;-54
2023/08/06 07:25:29;;;;;;;1.97;0.97;;;;;;;;;;5009851;28;20435;-53
2023/08/06 07:27:57;;;;;;;2.50;1.00;;;;;;;;;;5011868;28;20796;-54
2023/08/06 07:30:24;;;;;;;2.50;1.43;;;;;;;;;;5011459;28;20940;-52
2023/08/06 07:32:51;;;;;;;3.37;1.77;;;;;;;;;;5012342;28;20431;-55
2023/08/06 07:35:19;;;;;;;1.90;1.10;;;;;;;;;;5012202;28;20489;-54
2023/08/06 07:37:46;;;;;;;2.23;1.37;;;;;;;;;;5012055;28;20451;-54
2023/08/06 07:40:15;;;;;;;3.43;2.03;;;;;;;;;;5012007;28;20594;-53
2023/08/06 07:42:42;;;;;;;4.30;3.07;;;;;;;;;;5011941;28;20566;-55
2023/08/06 07:45:10;;;;;;;3.47;2.17;;;;;;;;;;5007629;28;20875;-55
2023/08/06 07:47:37;;;;;;;3.20;1.57;;;;;;;;;;5010452;28;20600;-55
2023/08/06 07:50:05;;;;;;;4.10;1.83;;;;;;;;;;5010162;28;20471;-55
2023/08/06 07:52:32;;;;;;;2.47;1.50;;;;;;;;;;5009921;28;21107;-54
2023/08/06 07:55:00;;;;;;;2.87;1.60;;;;;;;;;;5010767;28;20859;-55
2023/08/06 07:57:29;;;;;;;2.03;0.90;;;;;;;;;;5009666;28;20463;-54
2023/08/06 07:59:56;;;;;;;2.30;1.03;;;;;;;;;;5011074;28;21007;-53
2023/08/06 08:02:23;;;;;;;2.50;1.47;;;;;;;;;;5011705;28;20526;-54
2023/08/06 08:04:51;;;;;;;5.30;1.30;;;;;;;;;;5010432;28;20489;-55
2023/08/06 08:07:18;;;;;;;2.47;1.33;;;;;;;;;;5001974;28;20926;-54
2023/08/06 08:09:45;;;;;;;2.10;1.20;;;;;;;;;;5007681;28;20874;-54
2023/08/06 08:12:12;;;;;;;2.27;1.47;;;;;;;;;;5008399;28;20902;-53
2023/08/06 08:14:41;;;;;;;2.00;1.20;;;;;;;;;;5008467;28;20530;-54
2023/08/06 08:17:08;;;;;;;2.40;1.43;;;;;;;;;;5023754;23;20590;-58
2023/08/06 08:19:36;;;;;;;2.00;1.00;;;;;;;;;;5007814;28;20532;-58
2023/08/06 08:22:03;;;;;;;1.80;0.97;;;;;;;;;;5007685;28;20590;-58
2023/08/06 08:24:30;;;;;;;2.00;1.37;;;;;;;;;;5008388;28;20527;-58
2023/08/06 08:26:58;;;;;;;2.10;1.27;;;;;;;;;;5008333;28;20994;-58
2023/08/06 08:29:25;;;;;;;1.87;1.17;;;;;;;;;;5008443;28;20538;-58
2023/08/06 08:31:54;;;;;;;2.00;1.20;;;;;;;;;;5008110;28;20463;-58
2023/08/06 08:34:21;;;;;;;2.40;1.30;;;;;;;;;;5008103;28;20525;-58
2023/08/06 08:36:49;;;;;;;2.90;1.20;;;;;;;;;;5002344;28;20535;-58
2023/08/06 08:39:17;;;;;;;2.10;1.40;;;;;;;;;;5007958;28;20935;-58
2023/08/06 08:41:44;;;;;;;3.20;1.40;;;;;;;;;;5008761;28;20467;-58
2023/08/06 08:44:11;;;;;;;1.93;1.10;;;;;;;;;;5008602;28;20528;-58
2023/08/06 08:46:41;;;;;;;2.10;1.33;;;;;;;;;;5008040;28;20987;-56
2023/08/06 08:49:10;;;;;;;3.27;1.23;;;;;;;;;;5006234;28;20471;-58
2023/08/06 08:51:37;;;;;;;1.97;1.30;;;;;;;;;;5006497;28;20541;-58
2023/08/06 08:54:05;;;;;;;2.97;2.27;;;;;;;;;;5006656;28;20817;-57
2023/08/06 08:56:33;;;;;;;1.63;0.87;;;;;;;;;;5006347;28;20982;-55
2023/08/06 08:59:00;;;;;;;2.10;1.37;;;;;;;;;;5006194;28;20929;-56
2023/08/06 09:01:29;;;;;;;1.90;1.10;;;;;;;;;;5006122;28;20482;-57
2023/08/06 09:03:56;;;;;;;2.07;1.37;;;;;;;;;;5008248;28;20435;-57
2023/08/06 09:06:26;;;;;;;2.10;1.00;;;;;;;;;;5003017;28;21027;-56
2023/08/06 09:08:58;;;;;;;1.90;1.13;;;;;;;;;;5007481;28;20483;-57
2023/08/06 09:11:25;;;;;;;2.30;1.40;;;;;;;;;;5007577;28;20471;-57
2023/08/06 09:13:53;;;;;;;2.73;1.17;;;;;;;;;;5004802;28;20960;-56
2023/08/06 09:16:20;;;;;;;2.47;1.27;;;;;;;;;;5007139;28;20558;-56
2023/08/06 09:18:47;;;;;;;1.83;1.20;;;;;;;;;;5007214;28;20517;-56
2023/08/06 09:21:17;;;;;;;3.33;1.20;;;;;;;;;;5007471;28;20984;-56
2023/08/06 09:23:46;;;;;;;2.73;1.30;;;;;;;;;;5007297;28;20505;-57
2023/08/06 09:26:15;;;;;;;1.97;1.10;;;;;;;;;;5007493;28;20505;-57
2023/08/06 09:28:43;;;;;;;2.10;1.50;;;;;;;;;;5007525;28;20555;-58
2023/08/06 09:31:11;;;;;;;2.67;1.10;;;;;;;;;;5007762;28;20917;-57
2023/08/06 09:33:39;;;;;;;2.63;1.20;;;;;;;;;;5010597;28;20439;-56
2023/08/06 09:36:09;;;;;;;2.30;1.60;;;;;;;;;;5011521;28;20443;-58
2023/08/06 09:38:39;;;;;;;1.80;1.00;;;;;;;;;;4995198;28;20534;-58
2023/08/06 09:41:08;;;;;;;2.20;1.30;;;;;;;;;;4992350;28;20450;-58
2023/08/06 09:43:42;;;;;;;3.23;1.50;;;;;;;;;;4993357;28;20547;-56
2023/08/06 09:46:14;;;;;;;2.23;1.30;;;;;;;;;;5009328;28;20457;-58
2023/08/06 09:48:42;;;;;;;2.80;1.40;;;;;;;;;;5000255;28;21187;-57
2023/08/06 09:51:10;;;;;;;2.60;1.47;;;;;;;;;;5009120;28;20568;-61
2023/08/06 09:53:39;;;;;;;1.93;1.23;;;;;;;;;;5006493;28;20445;-58
2023/08/06 09:56:07;;;;;;;2.77;1.33;;;;;;;;;;4990203;28;20534;-56
2023/08/06 09:58:34;;;;;;;2.27;1.67;;;;;;;;;;4990305;28;20526;-59
2023/08/06 10:01:03;;;;;;;4.00;1.77;;;;;;;;;;4990454;28;20559;-58
2023/08/06 10:03:30;;;;;;;3.57;1.80;;;;;;;;;;4991669;28;20532;-56
2023/08/06 10:05:58;;;;;;;3.37;2.17;;;;;;;;;;4990659;28;20538;-56
2023/08/06 10:08:25;;;;;;;3.30;1.90;;;;;;;;;;4997883;28;20480;-56
2023/08/06 10:10:53;;;;;;;2.20;1.50;;;;;;;;;;4999541;28;20521;-57
2023/08/06 10:13:23;;;;;;;3.03;1.93;;;;;;;;;;5005311;28;20448;-55
2023/08/06 10:15:51;;;;;;;2.20;1.30;;;;;;;;;;5009145;28;20459;-56
2023/08/06 10:18:21;;;;;;;2.10;1.27;;;;;;;;;;5010308;28;20455;-56
2023/08/06 10:20:48;;;;;;;1.80;1.20;;;;;;;;;;5011531;28;20435;-56
2023/08/06 10:23:16;;;;;;;2.97;1.67;;;;;;;;;;5013078;28;20459;-56
2023/08/06 10:25:44;;;;;;;2.00;1.13;;;;;;;;;;5010753;28;20431;-56
2023/08/06 10:28:13;;;;;;;2.70;1.33;;;;;;;;;;5012379;28;20507;-58
2023/08/06 10:30:46;;;;;;;2.17;1.10;;;;;;;;;;5012873;28;20439;-58
2023/08/06 10:33:13;;;;;;;2.57;1.40;;;;;;;;;;5012911;28;20892;-57
2023/08/06 10:35:44;;;;;;;2.20;1.07;;;;;;;;;;5012971;28;20823;-56
2023/08/06 10:38:13;;;;;;;2.50;0.97;;;;;;;;;;5012094;28;20461;-58
2023/08/06 10:40:41;;;;;;;2.20;1.43;;;;;;;;;;5012771;28;20457;-55
2023/08/06 10:43:10;;;;;;;1.90;1.00;;;;;;;;;;5013055;28;20497;-56
2023/08/06 10:45:37;;;;;;;2.10;0.97;;;;;;;;;;5012825;28;20796;-55
2023/08/06 10:48:06;;;;;;;2.33;0.90;;;;;;;;;;5011935;28;20479;-55
2023/08/06 10:50:33;;;;;;;2.57;1.40;;;;;;;;;;5011868;28;20455;-55
2023/08/06 10:53:06;;;;;;;2.00;0.87;;;;;;;;;;5012077;28;20518;-55
2023/08/06 10:55:33;;;;;;;1.77;0.93;;;;;;;;;;5011720;28;20820;-55
2023/08/06 10:58:01;;;;;;;1.80;0.90;;;;;;;;;;5011624;28;20542;-56
2023/08/06 11:00:28;;;;;;;2.90;1.10;;;;;;;;;;5011136;28;20439;-56
2023/08/06 11:02:55;;;;;;;2.40;1.10;;;;;;;;;;5012580;28;20931;-56
2023/08/06 11:05:24;;;;;;;1.70;0.90;;;;;;;;;;5012991;28;20526;-56
2023/08/06 11:07:52;;;;;;;2.40;1.17;;;;;;;;;;5012808;28;20581;-56
2023/08/06 11:10:19;;;;;;;1.97;1.00;;;;;;;;;;5012359;28;20439;-53
2023/08/06 11:12:47;;;;;;;5.00;1.10;;;;;;;;;;5012752;28;20547;-55
2023/08/06 11:15:14;;;;;;;2.40;1.27;;;;;;;;;;5012806;28;20439;-56
2023/08/06 11:17:42;;;;;;;2.43;1.27;;;;;;;;;;5012053;28;20549;-56
2023/08/06 11:20:10;;;;;;;2.17;1.10;;;;;;;;;;5012492;28;20474;-54
2023/08/06 11:22:39;;;;;;;2.10;1.10;;;;;;;;;;5012388;28;20446;-56
2023/08/06 11:25:07;;;;;;;2.10;1.13;;;;;;;;;;5012638;28;20527;-55
2023/08/06 11:27:34;;;;;;;1.90;1.00;;;;;;;;;;5011750;28;20475;-55
2023/08/06 11:30:02;;;;;;;2.07;1.20;;;;;;;;;;5012775;28;20474;-56
2023/08/06 11:32:29;;;;;;;1.90;1.30;;;;;;;;;;5012128;28;20439;-56
2023/08/06 11:34:56;;;;;;;2.10;0.90;;;;;;;;;;5012084;28;20886;-56
2023/08/06 11:37:25;;;;;;;2.80;1.20;;;;;;;;;;5012516;28;20534;-55
2023/08/06 11:39:54;;;;;;;1.80;1.10;;;;;;;;;;5011380;28;20443;-54
2023/08/06 11:42:21;;;;;;;2.40;1.10;;;;;;;;;;5010641;28;20439;-55
2023/08/06 11:44:48;;;;;;;1.90;0.90;;;;;;;;;;5011114;28;20466;-55
2023/08/06 11:47:17;;;;;;;1.80;0.93;;;;;;;;;;5011326;28;20562;-55
2023/08/06 11:49:46;;;;;;;2.73;0.97;;;;;;;;;;5011648;28;20443;-55
2023/08/06 11:52:19;;;;;;;2.50;1.27;;;;;;;;;;5011269;28;20439;-56
2023/08/06 11:54:46;;;;;;;1.80;0.90;;;;;;;;;;5011547;28;20450;-56
2023/08/06 11:57:15;;;;;;;2.37;1.03;;;;;;;;;;5010897;28;21052;-55
2023/08/06 11:59:42;;;;;;;2.07;1.00;;;;;;;;;;5011161;28;20435;-57
2023/08/06 12:02:11;;;;;;;2.20;1.20;;;;;;;;;;5011826;28;20497;-56
2023/08/06 12:04:56;;;;;;;2.00;1.20;;;;;;;;;;5011974;28;20440;-55
2023/08/06 12:07:27;;;;;;;2.00;0.83;;;;;;;;;;5011557;28;20570;-56
2023/08/06 12:09:54;;;;;;;2.17;0.90;;;;;;;;;;5010963;28;20522;-56
2023/08/06 12:12:23;;;;;;;2.23;0.97;;;;;;;;;;5011736;28;20489;-56
2023/08/06 12:14:50;;;;;;;2.30;1.10;;;;;;;;;;5011808;28;20850;-56
2023/08/06 12:17:18;;;;;;;2.37;1.10;;;;;;;;;;5011090;28;20553;-55
2023/08/06 12:19:46;;;;;;;1.70;0.90;;;;;;;;;;5011177;28;20451;-56
2023/08/06 12:22:14;;;;;;;2.47;1.20;;;;;;;;;;5011421;28;20900;-55
2023/08/06 12:24:41;;;;;;;2.00;1.10;;;;;;;;;;5011754;28;20449;-56
2023/08/06 12:27:08;;;;;;;2.67;1.20;;;;;;;;;;5010759;28;20530;-56
2023/08/06 12:29:37;;;;;;;1.97;1.17;;;;;;;;;;5011211;28;20534;-56
2023/08/06 12:32:05;;;;;;;1.77;0.80;;;;;;;;;;5011313;28;20899;-55
2023/08/06 12:34:32;;;;;;;1.70;0.60;;;;;;;;;;5011295;28;20466;-56
2023/08/06 12:36:59;;;;;;;1.67;0.50;;;;;;;;;;5011011;28;20543;-56
2023/08/06 12:39:28;;;;;;;3.00;0.83;;;;;;;;;;5010746;28;20984;-56
2023/08/06 12:41:57;;;;;;;2.17;0.97;;;;;;;;;;5011135;28;20943;-55
2023/08/06 12:44:24;;;;;;;2.27;1.13;;;;;;;;;;5011395;28;20450;-56
2023/08/06 12:46:53;;;;;;;2.90;1.20;;;;;;;;;;5010136;28;20573;-56
2023/08/06 12:49:21;;;;;;;1.60;0.70;;;;;;;;;;5010876;28;20533;-57
2023/08/06 12:51:49;;;;;;;1.93;0.93;;;;;;;;;;5010879;28;20439;-57
2023/08/06 12:54:18;;;;;;;1.77;0.67;;;;;;;;;;5010987;28;20648;-55
2023/08/06 12:56:45;;;;;;;1.70;0.87;;;;;;;;;;5010930;28;20467;-53
2023/08/06 12:59:12;;;;;;;1.60;0.70;;;;;;;;;;5010774;28;20440;-55
2023/08/06 13:01:40;;;;;;;1.60;0.60;;;;;;;;;;5010698;28;20525;-54
2023/08/06 13:04:08;;;;;;;1.90;0.63;;;;;;;;;;5010519;28;20471;-54
2023/08/06 13:06:36;;;;;;;1.73;0.60;;;;;;;;;;5010817;28;20462;-55
2023/08/06 13:09:04;;;;;;;1.73;0.70;;;;;;;;;;5010197;28;20478;-57
2023/08/06 13:11:32;;;;;;;1.60;0.60;;;;;;;;;;5009044;28;20435;-53
2023/08/06 13:14:01;;;;;;;1.50;0.50;;;;;;;;;;5008627;28;20443;-53
2023/08/06 13:16:28;;;;;;;1.70;0.80;;;;;;;;;;5006202;28;20931;-54
2023/08/06 13:18:56;;;;;;;1.97;0.60;;;;;;;;;;5008784;28;20478;-54
2023/08/06 13:21:24;;;;;;;1.80;0.47;;;;;;;;;;5008589;28;20827;-54
2023/08/06 13:23:52;;;;;;;1.70;0.40;;;;;;;;;;5008465;28;20447;-54
2023/08/06 13:26:19;;;;;;;1.53;0.57;;;;;;;;;;5006125;28;20498;-54
2023/08/06 13:28:46;;;;;;;1.70;0.60;;;;;;;;;;4997214;28;21002;-54
2023/08/06 13:31:13;;;;;;;1.40;0.40;;;;;;;;;;4999202;28;20452;-53
2023/08/06 13:33:41;;;;;;;1.70;0.40;;;;;;;;;;5001992;28;20444;-54
2023/08/06 13:36:08;;;;;;;1.73;0.60;;;;;;;;;;5008517;28;20439;-54
2023/08/06 13:38:37;;;;;;;1.40;0.40;;;;;;;;;;5010376;28;20435;-54
2023/08/06 13:41:05;;;;;;;1.40;0.40;;;;;;;;;;5010055;28;20462;-54
2023/08/06 13:43:32;;;;;;;1.57;0.40;;;;;;;;;;5009600;28;20447;-54
2023/08/06 13:45:59;;;;;;;1.40;0.40;;;;;;;;;;5008262;28;20447;-54
2023/08/06 13:48:27;;;;;;;1.40;0.40;;;;;;;;;;5009169;28;20903;-55
2023/08/06 13:50:54;;;;;;;1.50;0.50;;;;;;;;;;5000431;28;20468;-55
2023/08/06 13:53:21;;;;;;;1.40;0.40;;;;;;;;;;4997085;28;20971;-55
2023/08/06 13:55:50;;;;;;;1.40;0.40;;;;;;;;;;5005297;28;20474;-55
2023/08/06 13:58:17;;;;;;;1.60;0.50;;;;;;;;;;5009251;28;21040;-53
2023/08/06 14:00:44;;;;;;;1.40;0.40;;;;;;;;;;5008516;28;20531;-54
2023/08/06 14:03:12;;;;;;;1.47;0.40;;;;;;;;;;5009049;28;20478;-54
2023/08/06 14:05:39;;;;;;;1.40;0.40;;;;;;;;;;5008777;28;21029;-54
2023/08/06 14:08:06;;;;;;;1.47;0.50;;;;;;;;;;5008622;28;20581;-54
2023/08/06 14:10:33;;;;;;;1.50;0.47;;;;;;;;;;5008782;28;20439;-55
2023/08/06 14:13:02;;;;;;;1.50;0.43;;;;;;;;;;5008835;28;20439;-55
2023/08/06 14:15:29;;;;;;;1.40;0.40;;;;;;;;;;5009497;28;20527;-54
2023/08/06 14:17:56;;;;;;;9.03;4.47;;;;;;;;;;5081958;23;20818;-54
2023/08/06 14:20:24;;;;;;;5.97;3.97;;;;;;;;;;5028973;28;20484;-53
2023/08/06 14:22:51;;;;;;;1.63;0.70;;;;;;;;;;5033109;28;20438;-55
2023/08/06 14:25:18;;;;;;;4.00;1.37;;;;;;;;;;5033066;28;21155;-54
2023/08/06 14:27:45;;;;;;;1.70;0.80;;;;;;;;;;5030298;28;20512;-54
2023/08/06 14:30:14;;;;;;;1.80;0.87;;;;;;;;;;5033017;28;20458;-53
2023/08/06 14:32:41;;;;;;;1.67;0.60;;;;;;;;;;5032611;28;20434;-55
2023/08/06 14:35:09;;;;;;;1.90;1.17;;;;;;;;;;5032985;28;20513;-54
2023/08/06 14:37:36;;;;;;;1.90;0.93;;;;;;;;;;5032809;28;20489;-54
2023/08/06 14:40:04;;;;;;;2.63;1.50;;;;;;;;;;5032699;28;20517;-54
2023/08/06 14:42:31;;;;;;;3.13;1.40;;;;;;;;;;5032882;28;20525;-53
2023/08/06 14:44:58;;;;;;;1.60;0.50;;;;;;;;;;5032551;28;20461;-54
2023/08/06 14:47:27;;;;;;;1.80;0.70;;;;;;;;;;5030244;28;20540;-54